createdAt,value
2019-06-10T00:02:26.840Z,21.03
2019-06-10T00:05:00.287Z,21.07
2019-06-10T00:07:31.957Z,20.67
2019-06-10T00:10:07.436Z,22.57
2019-06-10T00:12:38.842Z,21.83
2019-06-10T00:15:11.143Z,21.67
2019-06-10T00:17:54.881Z,22.90
2019-06-10T00:20:17.311Z,21.87
2019-06-10T00:22:51.353Z,23.93
2019-06-10T00:25:21.946Z,24.00
2019-06-10T00:27:53.736Z,23.47
2019-06-10T00:30:27.040Z,23.70
2019-06-10T00:33:00.567Z,23.43
2019-06-10T00:35:32.766Z,22.03
2019-06-10T00:38:07.257Z,20.90
2019-06-10T00:40:37.832Z,18.33
2019-06-10T00:43:13.134Z,18.47
2019-06-10T00:45:43.688Z,18.00
2019-06-10T00:48:25.220Z,17.57
2019-06-10T00:50:48.228Z,17.37
2019-06-10T00:53:21.188Z,16.47
2019-06-10T00:55:52.770Z,15.57
2019-06-10T00:58:24.626Z,15.03
2019-06-10T01:00:56.589Z,16.47
2019-06-10T01:03:31.146Z,16.53
2019-06-10T01:06:03.043Z,16.67
2019-06-10T01:08:35.141Z,16.60
2019-06-10T01:11:14.271Z,16.77
2019-06-10T01:13:41.460Z,16.80
2019-06-10T01:16:15.234Z,17.50
2019-06-10T01:18:50.328Z,18.53
2019-06-10T01:21:21.880Z,18.07
2019-06-10T01:23:53.890Z,17.53
2019-06-10T01:26:27.891Z,16.63
2019-06-10T01:29:00.978Z,15.83
2019-06-10T01:31:33.770Z,16.50
2019-06-10T01:34:05.841Z,15.40
2019-06-10T01:36:37.800Z,15.53
2019-06-10T01:39:12.020Z,14.23
2019-06-10T01:41:43.577Z,14.53
2019-06-10T01:44:16.445Z,13.10
2019-06-10T01:46:48.921Z,12.40
2019-06-10T01:49:21.442Z,12.73
2019-06-10T01:51:53.767Z,11.87
2019-06-10T01:54:25.756Z,12.10
2019-06-10T01:56:57.688Z,11.70
2019-06-10T01:59:31.126Z,11.50
2019-06-10T02:02:07.555Z,10.63
2019-06-10T02:04:41.139Z,10.63
2019-06-10T02:07:15.577Z,10.63
2019-06-10T02:09:46.413Z,10.43
2019-06-10T02:12:20.138Z,11.60
2019-06-10T02:14:51.473Z,11.87
2019-06-10T02:17:24.043Z,12.97
2019-06-10T02:19:55.904Z,14.13
2019-06-10T02:22:31.816Z,14.50
2019-06-10T02:25:03.001Z,15.20
2019-06-10T02:27:34.870Z,14.10
2019-06-10T02:30:14.948Z,14.17
2019-06-10T02:32:42.742Z,14.87
2019-06-10T02:35:26.309Z,15.50
2019-06-10T02:37:48.065Z,15.67
2019-06-10T02:40:30.903Z,16.50
2019-06-10T02:42:56.166Z,18.60
2019-06-10T02:45:33.692Z,20.47
2019-06-10T02:48:04.226Z,19.47
2019-06-10T02:50:54.058Z,19.57
2019-06-10T02:53:30.742Z,19.07
2019-06-10T02:55:58.710Z,19.87
2019-06-10T02:58:38.494Z,18.80
2019-06-10T03:01:04.713Z,18.83
2019-06-10T03:03:43.829Z,18.03
2019-06-10T03:06:13.627Z,17.10
2019-06-10T03:08:44.250Z,17.20
2019-06-10T03:11:16.567Z,16.10
2019-06-10T03:13:49.510Z,14.43
2019-06-10T03:16:29.157Z,14.67
2019-06-10T03:19:02.932Z,13.90
2019-06-10T03:21:34.613Z,13.87
2019-06-10T03:24:08.532Z,13.43
2019-06-10T03:26:42.657Z,12.87
2019-06-10T03:29:13.373Z,12.07
2019-06-10T03:31:48.037Z,11.87
2019-06-10T03:34:23.221Z,11.27
2019-06-10T03:36:53.509Z,10.90
2019-06-10T03:39:26.919Z,10.85
2019-06-10T03:41:58.918Z,11.15
2019-06-10T03:44:33.652Z,11.30
2019-06-10T03:47:05.913Z,12.25
2019-06-10T03:49:49.906Z,11.57
2019-06-10T03:52:12.832Z,13.08
2019-06-10T03:54:44.265Z,13.00
2019-06-10T03:57:15.613Z,12.78
2019-06-10T03:59:47.469Z,14.07
2019-06-10T04:02:19.419Z,15.80
2019-06-10T04:04:52.327Z,14.93
2019-06-10T04:07:27.760Z,14.13
2019-06-10T04:09:57.065Z,14.38
2019-06-10T04:12:29.547Z,13.43
2019-06-10T04:15:03.700Z,10.78
2019-06-10T04:17:36.461Z,11.00
2019-06-10T04:20:12.474Z,10.63
2019-06-10T04:22:44.461Z,10.00
2019-06-10T04:25:17.651Z,8.93
2019-06-10T04:27:49.193Z,8.23
2019-06-10T04:30:24.350Z,8.65
2019-06-10T04:32:55.527Z,7.60
2019-06-10T04:35:27.977Z,6.35
2019-06-10T04:38:03.193Z,5.72
2019-06-10T04:40:35.675Z,6.53
2019-06-10T04:43:08.040Z,6.03
2019-06-10T04:45:42.836Z,6.10
2019-06-10T04:48:13.808Z,6.62
2019-06-10T04:50:46.595Z,6.40
2019-06-10T04:53:18.784Z,6.17
2019-06-10T04:55:52.308Z,5.87
2019-06-10T04:58:27.597Z,10.30
2019-06-10T05:00:59.037Z,5.95
2019-06-10T05:03:32.873Z,5.25
2019-06-10T05:06:05.329Z,5.87
2019-06-10T05:08:37.592Z,5.25
2019-06-10T05:11:12.653Z,6.05
2019-06-10T05:13:43.873Z,5.50
2019-06-10T05:16:17.575Z,5.28
2019-06-10T05:18:54.222Z,5.83
2019-06-10T05:21:26.704Z,5.05
2019-06-10T05:23:57.580Z,5.78
2019-06-10T05:26:32.737Z,5.05
2019-06-10T05:29:04.558Z,5.28
2019-06-10T05:31:37.033Z,5.33
2019-06-10T05:34:13.188Z,5.65
2019-06-10T05:36:44.549Z,5.62
2019-06-10T05:39:17.531Z,5.47
2019-06-10T05:41:50.835Z,5.90
2019-06-10T05:44:28.093Z,5.58
2019-06-10T05:47:03.420Z,6.05
2019-06-10T05:49:36.315Z,5.83
2019-06-10T05:52:12.499Z,5.67
2019-06-10T05:54:44.253Z,5.87
2019-06-10T05:57:16.624Z,5.40
2019-06-10T05:59:48.990Z,5.90
2019-06-10T06:02:22.337Z,6.10
2019-06-10T06:04:54.770Z,5.28
2019-06-10T06:07:27.145Z,6.72
2019-06-10T06:09:59.516Z,5.65
2019-06-10T06:12:35.818Z,5.75
2019-06-10T06:15:08.199Z,6.17
2019-06-10T06:17:40.328Z,5.67
2019-06-10T06:20:13.789Z,5.67
2019-06-10T06:22:48.315Z,5.90
2019-06-10T06:25:23.981Z,5.95
2019-06-10T06:27:54.715Z,6.30
2019-06-10T06:30:28.118Z,6.47
2019-06-10T06:33:02.901Z,6.10
2019-06-10T06:35:40.890Z,6.22
2019-06-10T06:38:08.346Z,5.97
2019-06-10T06:40:43.545Z,9.83
2019-06-10T06:43:15.130Z,8.25
2019-06-10T06:45:47.487Z,6.83
2019-06-10T06:48:19.839Z,7.28
2019-06-10T06:51:04.398Z,7.62
2019-06-10T06:53:37.298Z,8.58
2019-06-10T06:56:03.851Z,8.75
2019-06-10T06:58:52.692Z,8.90
2019-06-10T07:01:27.713Z,8.55
2019-06-10T07:04:02.435Z,8.13
2019-06-10T07:06:36.038Z,8.48
2019-06-10T07:09:08.992Z,10.03
2019-06-10T07:11:44.930Z,8.70
2019-06-10T07:14:15.628Z,10.55
2019-06-10T07:16:47.989Z,9.68
2019-06-10T07:19:22.511Z,10.85
2019-06-10T07:22:08.307Z,11.00
2019-06-10T07:24:27.280Z,12.05
2019-06-10T07:27:02.591Z,10.85
2019-06-10T07:29:37.061Z,11.10
2019-06-10T07:32:08.059Z,12.05
2019-06-10T07:34:40.481Z,12.23
2019-06-10T07:37:13.695Z,11.60
2019-06-10T07:39:45.518Z,11.37
2019-06-10T07:42:17.856Z,11.93
2019-06-10T07:44:49.515Z,13.08
2019-06-10T07:47:23.129Z,13.32
2019-06-10T07:49:55.686Z,14.38
2019-06-10T07:52:27.558Z,13.85
2019-06-10T07:55:02.512Z,11.03
2019-06-10T07:57:35.650Z,11.08
2019-06-10T08:00:12.757Z,12.10
2019-06-10T08:02:45.961Z,10.58
2019-06-10T08:05:17.731Z,10.00
2019-06-10T08:07:50.175Z,10.35
2019-06-10T08:10:23.266Z,9.23
2019-06-10T08:12:55.035Z,10.35
2019-06-10T08:15:27.296Z,9.43
2019-06-10T08:17:59.882Z,9.48
2019-06-10T08:20:47.620Z,9.88
2019-06-10T08:23:23.350Z,10.00
2019-06-10T08:25:57.569Z,9.28
2019-06-10T08:28:27.076Z,9.58
2019-06-10T08:31:03.684Z,8.20
2019-06-10T08:33:36.973Z,6.70
2019-06-10T08:36:08.498Z,7.22
2019-06-10T08:38:43.474Z,8.13
2019-06-10T08:41:13.746Z,7.58
2019-06-10T08:43:48.202Z,8.08
2019-06-10T08:46:19.415Z,9.53
2019-06-10T08:48:52.608Z,8.78
2019-06-10T08:51:24.465Z,7.42
2019-06-10T08:53:56.222Z,6.90
2019-06-10T08:56:27.890Z,6.83
2019-06-10T08:59:00.145Z,5.33
2019-06-10T09:01:33.408Z,5.40
2019-06-10T09:04:05.303Z,5.28
2019-06-10T09:06:38.795Z,5.45
2019-06-10T09:09:12.886Z,5.58
2019-06-10T09:11:47.929Z,5.30
2019-06-10T09:14:18.893Z,4.58
2019-06-10T09:16:54.056Z,5.15
2019-06-10T09:19:24.975Z,5.35
2019-06-10T09:21:56.903Z,5.20
2019-06-10T09:24:29.399Z,4.87
2019-06-10T09:27:02.896Z,5.12
2019-06-10T09:29:35.174Z,4.50
2019-06-10T09:32:07.857Z,4.67
2019-06-10T09:34:43.094Z,5.20
2019-06-10T09:37:15.354Z,6.30
2019-06-10T09:39:55.935Z,4.90
2019-06-10T09:42:24.096Z,4.40
2019-06-10T09:44:57.120Z,5.50
2019-06-10T09:47:30.271Z,4.67
2019-06-10T09:50:03.318Z,4.62
2019-06-10T09:52:35.530Z,4.60
2019-06-10T09:55:08.768Z,4.22
2019-06-10T09:57:43.687Z,4.50
2019-06-10T10:00:17.879Z,4.75
2019-06-10T10:02:52.060Z,4.62
2019-06-10T10:05:24.367Z,4.15
2019-06-10T10:07:57.441Z,3.70
2019-06-10T10:10:39.618Z,3.58
2019-06-10T10:13:13.056Z,3.92
2019-06-10T10:15:45.742Z,3.80
2019-06-10T10:18:17.714Z,4.22
2019-06-10T10:20:51.557Z,4.30
2019-06-10T10:23:23.817Z,4.05
2019-06-10T10:25:57.180Z,3.85
2019-06-10T10:28:29.550Z,3.80
2019-06-10T10:31:04.471Z,4.08
2019-06-10T10:33:35.726Z,3.50
2019-06-10T10:36:08.608Z,4.12
2019-06-10T10:38:40.655Z,4.12
2019-06-10T10:41:13.526Z,3.58
2019-06-10T10:43:48.860Z,3.70
2019-06-10T10:46:22.922Z,3.42
2019-06-10T10:48:56.306Z,4.20
2019-06-10T10:51:27.742Z,4.30
2019-06-10T10:54:20.711Z,3.75
2019-06-10T10:56:34.101Z,3.87
2019-06-10T10:59:06.157Z,3.80
2019-06-10T11:01:38.156Z,4.47
2019-06-10T11:04:13.021Z,3.87
2019-06-10T11:06:44.583Z,3.45
2019-06-10T11:09:22.029Z,4.08
2019-06-10T11:11:55.052Z,4.28
2019-06-10T11:14:28.214Z,4.30
2019-06-10T11:17:02.796Z,3.70
2019-06-10T11:19:34.512Z,4.50
2019-06-10T11:22:06.485Z,4.08
2019-06-10T11:24:42.049Z,4.58
2019-06-10T11:27:12.824Z,4.83
2019-06-10T11:29:44.726Z,4.55
2019-06-10T11:32:17.954Z,4.50
2019-06-10T11:34:56.076Z,4.45
2019-06-10T11:37:25.410Z,4.20
2019-06-10T11:39:57.396Z,4.33
2019-06-10T11:42:29.289Z,4.90
2019-06-10T11:45:02.940Z,5.28
2019-06-10T11:47:34.957Z,4.30
2019-06-10T11:50:07.370Z,4.42
2019-06-10T11:52:39.450Z,4.17
2019-06-10T11:55:18.445Z,4.12
2019-06-10T11:57:45.132Z,4.10
2019-06-10T12:00:18.845Z,4.45
2019-06-10T12:02:53.179Z,4.50
2019-06-10T12:05:25.358Z,4.03
2019-06-10T12:07:59.791Z,3.95
2019-06-10T12:10:33.058Z,4.03
2019-06-10T12:13:07.312Z,3.85
2019-06-10T12:16:19.906Z,3.85
2019-06-10T12:18:13.653Z,4.17
2019-06-10T12:20:45.560Z,4.22
2019-06-10T12:23:19.008Z,4.12
2019-06-10T12:25:54.595Z,4.78
2019-06-10T12:28:26.180Z,5.42
2019-06-10T12:31:01.482Z,4.85
2019-06-10T12:33:33.698Z,4.53
2019-06-10T12:36:07.194Z,4.62
2019-06-10T12:38:43.040Z,4.72
2019-06-10T12:41:15.438Z,8.18
2019-06-10T12:43:53.082Z,4.65
2019-06-10T12:46:23.838Z,4.80
2019-06-10T12:49:02.082Z,4.47
2019-06-10T12:51:32.801Z,4.78
2019-06-10T12:54:06.370Z,4.87
2019-06-10T12:56:38.622Z,5.00
2019-06-10T12:59:13.313Z,6.62
2019-06-10T13:01:46.763Z,4.10
2019-06-10T13:04:18.642Z,4.47
2019-06-10T13:06:52.721Z,4.10
2019-06-10T13:09:25.975Z,4.22
2019-06-10T13:11:57.936Z,4.40
2019-06-10T13:14:29.808Z,4.40
2019-06-10T13:17:02.973Z,4.55
2019-06-10T13:19:35.506Z,4.60
2019-06-10T13:22:08.875Z,4.75
2019-06-10T13:24:42.363Z,5.87
2019-06-10T13:27:14.669Z,5.50
2019-06-10T13:29:47.979Z,5.00
2019-06-10T13:32:20.595Z,4.47
2019-06-10T13:34:54.207Z,4.70
2019-06-10T13:37:26.046Z,4.67
2019-06-10T13:39:59.374Z,4.50
2019-06-10T13:42:36.052Z,4.70
2019-06-10T13:45:09.706Z,4.47
2019-06-10T13:47:43.037Z,4.22
2019-06-10T13:50:19.229Z,4.33
2019-06-10T13:52:53.346Z,4.35
2019-06-10T13:55:25.884Z,4.65
2019-06-10T13:57:59.517Z,5.62
2019-06-10T14:00:45.796Z,4.75
2019-06-10T14:03:11.264Z,4.60
2019-06-10T14:05:44.877Z,5.03
2019-06-10T14:08:18.511Z,4.50
2019-06-10T14:10:50.377Z,4.87
2019-06-10T14:13:23.560Z,4.95
2019-06-10T14:15:55.900Z,5.22
2019-06-10T14:18:28.335Z,4.80
2019-06-10T14:21:05.240Z,5.03
2019-06-10T14:23:34.506Z,5.10
2019-06-10T14:26:08.364Z,4.67
2019-06-10T14:28:41.797Z,4.33
2019-06-10T14:31:37.415Z,4.65
2019-06-10T14:33:47.582Z,4.28
2019-06-10T14:36:22.173Z,4.42
2019-06-10T14:38:54.373Z,4.70
2019-06-10T14:41:26.537Z,4.92
2019-06-10T14:43:58.401Z,4.58
2019-06-10T14:46:30.271Z,4.87
2019-06-10T14:49:02.411Z,4.70
2019-06-10T14:51:34.401Z,4.70
2019-06-10T14:54:07.195Z,4.70
2019-06-10T14:56:50.698Z,4.70
2019-06-10T14:59:14.553Z,5.00
2019-06-10T15:01:45.923Z,4.90
2019-06-10T15:04:19.658Z,4.87
2019-06-10T15:06:54.603Z,5.05
2019-06-10T15:09:25.264Z,4.72
2019-06-10T15:11:57.084Z,5.08
2019-06-10T15:14:28.949Z,5.15
2019-06-10T15:17:03.218Z,5.30
2019-06-10T15:19:34.591Z,5.70
2019-06-10T15:22:07.511Z,4.80
2019-06-10T15:24:39.141Z,4.97
2019-06-10T15:27:19.279Z,5.30
2019-06-10T15:29:49.705Z,5.20
2019-06-10T15:32:33.837Z,4.87
2019-06-10T15:34:56.406Z,5.28
2019-06-10T15:37:29.065Z,5.20
2019-06-10T15:40:03.472Z,5.15
2019-06-10T15:42:34.125Z,5.15
2019-06-10T15:45:09.817Z,5.25
2019-06-10T15:47:43.067Z,5.87
2019-06-10T15:50:18.739Z,6.80
2019-06-10T15:52:52.427Z,6.25
2019-06-10T15:55:49.259Z,5.50
2019-06-10T15:58:02.062Z,5.17
2019-06-10T16:00:34.158Z,5.37
2019-06-10T16:03:06.115Z,5.17
2019-06-10T16:05:37.969Z,5.50
2019-06-10T16:08:12.574Z,5.08
2019-06-10T16:10:44.148Z,5.55
2019-06-10T16:13:16.483Z,5.03
2019-06-10T16:15:49.004Z,4.55
2019-06-10T16:18:25.929Z,4.92
2019-06-10T16:20:54.584Z,5.62
2019-06-10T16:23:26.775Z,4.58
2019-06-10T16:25:59.304Z,5.62
2019-06-10T16:28:32.864Z,5.40
2019-06-10T16:31:06.303Z,5.50
2019-06-10T16:33:37.753Z,5.30
2019-06-10T16:36:12.827Z,5.22
2019-06-10T16:38:44.542Z,5.20
2019-06-10T16:41:17.448Z,7.50
2019-06-10T16:43:49.232Z,5.00
2019-06-10T16:46:20.746Z,5.27
2019-06-10T16:48:53.021Z,5.22
2019-06-10T16:51:25.786Z,5.97
2019-06-10T16:53:57.545Z,7.73
2019-06-10T16:56:30.923Z,5.30
2019-06-10T16:59:02.951Z,5.67
2019-06-10T17:01:35.373Z,5.85
2019-06-10T17:04:07.136Z,4.70
2019-06-10T17:06:38.895Z,5.47
2019-06-10T17:09:13.293Z,4.83
2019-06-10T17:11:44.738Z,6.58
2019-06-10T17:14:16.313Z,5.40
2019-06-10T17:16:48.722Z,5.20
2019-06-10T17:19:26.320Z,6.00
2019-06-10T17:21:54.452Z,6.20
2019-06-10T17:24:27.642Z,6.37
2019-06-10T17:27:00.477Z,5.90
2019-06-10T17:29:33.616Z,6.67
2019-06-10T17:32:05.390Z,6.60
2019-06-10T17:34:37.663Z,5.90
2019-06-10T17:37:08.999Z,5.90
2019-06-10T17:39:42.744Z,5.37
2019-06-10T17:42:14.460Z,5.63
2019-06-10T17:44:46.337Z,5.90
2019-06-10T17:47:18.592Z,5.50
2019-06-10T17:49:50.350Z,5.40
2019-06-10T17:52:22.413Z,5.80
2019-06-10T17:54:54.099Z,6.13
2019-06-10T17:57:27.184Z,5.53
2019-06-10T18:00:00.154Z,5.33
2019-06-10T18:02:34.569Z,6.17
2019-06-10T18:05:08.081Z,6.57
2019-06-10T18:07:39.678Z,8.70
2019-06-10T18:10:13.223Z,10.70
2019-06-10T18:12:44.771Z,7.40
2019-06-10T18:15:16.935Z,6.37
2019-06-10T18:17:48.795Z,6.10
2019-06-10T18:34:37.874Z,5.83
2019-06-10T18:37:09.743Z,5.63
2019-06-10T18:39:42.993Z,6.20
2019-06-10T18:42:14.690Z,5.77
2019-06-10T18:44:46.636Z,6.33
2019-06-10T18:47:18.514Z,6.80
2019-06-10T18:49:52.724Z,6.30
2019-06-10T18:52:24.457Z,6.03
2019-06-10T18:54:55.918Z,6.77
2019-06-10T18:57:28.767Z,5.97
2019-06-10T19:00:02.910Z,5.70
2019-06-10T19:02:34.459Z,5.93
2019-06-10T19:05:13.577Z,5.83
2019-06-10T19:07:46.880Z,6.30
2019-06-10T19:10:18.950Z,5.73
2019-06-10T20:47:17.579Z,6.53
2019-06-10T20:49:51.864Z,6.57
2019-06-10T20:52:22.807Z,6.33
2019-06-10T20:54:54.267Z,7.13
2019-06-10T20:57:26.124Z,7.10
2019-06-10T20:59:57.992Z,6.80
2019-06-10T21:02:29.743Z,6.30
2019-06-10T21:05:02.771Z,6.77
2019-06-10T21:07:36.541Z,7.50
2019-06-10T21:10:09.728Z,7.70
2019-06-10T21:12:44.350Z,6.80
2019-06-10T21:15:14.482Z,7.77
2019-06-10T21:17:47.281Z,7.40
2019-06-10T21:20:19.231Z,7.57
2019-06-10T21:22:53.451Z,8.03
2019-06-10T21:25:23.871Z,7.20
2019-06-10T21:27:55.515Z,6.80
2019-06-10T21:30:38.545Z,7.17
2019-06-10T21:33:03.635Z,6.47
2019-06-10T21:35:36.031Z,7.00
2019-06-10T21:38:07.772Z,7.43
2019-06-10T21:40:39.524Z,7.83
2019-06-10T21:43:12.977Z,7.00
2019-06-10T21:45:49.944Z,6.87
2019-06-10T21:48:17.975Z,7.13
2019-06-10T21:50:53.515Z,7.03
2019-06-10T21:53:22.929Z,8.07
2019-06-10T21:55:55.269Z,9.57
2019-06-10T21:58:27.061Z,10.53
2019-06-10T22:01:11.616Z,13.67
2019-06-10T22:03:32.347Z,18.37
2019-06-10T22:06:04.278Z,17.67
2019-06-10T22:08:35.827Z,16.57
2019-06-10T22:11:07.589Z,17.00
2019-06-10T22:13:39.443Z,13.83
2019-06-10T22:16:11.657Z,15.60
2019-06-10T22:18:44.511Z,13.50
2019-06-10T22:21:16.361Z,13.53
2019-06-10T22:23:48.764Z,11.77
2019-06-10T22:26:22.491Z,12.20
2019-06-10T22:28:55.806Z,12.50
2019-06-10T22:31:27.491Z,12.37
2019-06-10T22:34:00.165Z,11.67
2019-06-10T22:36:32.688Z,11.60
2019-06-10T22:39:05.225Z,10.97
2019-06-10T22:41:36.667Z,11.40
2019-06-10T22:44:08.420Z,10.57
2019-06-10T22:46:42.374Z,9.33
2019-06-10T22:49:13.603Z,10.23
2019-06-10T22:51:45.334Z,9.87
2019-06-10T22:54:17.096Z,10.40
2019-06-10T22:56:49.447Z,8.87
2019-06-10T22:59:22.928Z,9.63
2019-06-10T23:01:56.296Z,9.33
2019-06-10T23:04:27.707Z,8.27
2019-06-10T23:07:00.596Z,8.80
2019-06-10T23:09:32.962Z,7.97
2019-06-10T23:12:07.529Z,8.23
2019-06-10T23:14:39.858Z,7.70
2019-06-10T23:17:14.041Z,7.70
2019-06-10T23:19:44.805Z,7.37
2019-06-10T23:22:16.568Z,8.37
2019-06-10T23:24:49.542Z,7.87
2019-06-10T23:27:22.283Z,7.97
2019-06-10T23:29:55.592Z,7.33
2019-06-10T23:32:26.880Z,7.90
2019-06-10T23:35:01.038Z,7.60
2019-06-10T23:37:32.543Z,7.47
2019-06-10T23:40:04.854Z,7.53
2019-06-10T23:42:36.263Z,7.53
2019-06-10T23:45:08.844Z,7.50
2019-06-10T23:47:43.150Z,7.80
2019-06-10T23:50:13.950Z,7.93
2019-06-10T23:52:45.364Z,7.97
2019-06-10T23:55:16.997Z,8.47
2019-06-10T23:57:48.549Z,8.33
